Time;durP1;ratioP1;P1;durP2;ratioP2;P2;SDS_P1;SDS_P2;PMS_P1;PMS_P2;Temp;Humidity;BMP_temperature;BMP_pressure;BME280_temperature;BME280_humidity;BME280_pressure;Samples;Min_cycle;Max_cycle;Signal;HPM_P1;HPM_P2
2022/12/11 00:00:20;;;;;;;17.65;8.93;;;;;;;;;;4979269;28;20086;-81
2022/12/11 00:02:46;;;;;;;19.70;9.10;;;;;;;;;;4978234;28;20110;-82
2022/12/11 00:05:11;;;;;;;22.20;10.02;;;;;;;;;;4977729;28;20023;-83
2022/12/11 00:07:36;;;;;;;20.17;9.13;;;;;;;;;;4978861;28;20027;-82
2022/12/11 00:10:02;;;;;;;24.13;10.25;;;;;;;;;;4976601;28;20037;-82
2022/12/11 00:12:31;;;;;;;18.90;8.73;;;;;;;;;;4979829;28;20038;-82
2022/12/11 00:14:56;;;;;;;24.23;10.65;;;;;;;;;;4979484;28;20041;-81
2022/12/11 00:17:21;;;;;;;23.48;10.27;;;;;;;;;;4979173;28;20031;-82
2022/12/11 00:19:47;;;;;;;25.10;11.35;;;;;;;;;;4978837;28;20042;-81
2022/12/11 00:22:12;;;;;;;25.05;10.25;;;;;;;;;;4979355;28;20027;-81
2022/12/11 00:24:37;;;;;;;22.25;9.38;;;;;;;;;;4977024;28;20109;-80
2022/12/11 00:27:02;;;;;;;26.58;9.50;;;;;;;;;;4979195;28;20081;-82
2022/12/11 00:29:28;;;;;;;21.98;10.57;;;;;;;;;;4976863;28;20046;-81
2022/12/11 00:31:53;;;;;;;20.60;9.32;;;;;;;;;;4977918;28;20042;-81
2022/12/11 00:34:18;;;;;;;18.05;8.27;;;;;;;;;;4977314;28;20027;-81
2022/12/11 00:36:43;;;;;;;14.65;7.43;;;;;;;;;;4976604;28;20113;-80
2022/12/11 00:39:09;;;;;;;22.73;10.20;;;;;;;;;;4977724;28;20030;-80
2022/12/11 00:41:34;;;;;;;17.98;8.73;;;;;;;;;;4978207;28;20109;-80
2022/12/11 00:43:59;;;;;;;24.45;9.15;;;;;;;;;;4977667;28;20038;-79
2022/12/11 00:46:25;;;;;;;19.75;8.70;;;;;;;;;;4978983;28;20030;-83
2022/12/11 00:48:50;;;;;;;18.33;8.10;;;;;;;;;;4976368;28;20445;-78
2022/12/11 00:51:16;;;;;;;15.93;8.23;;;;;;;;;;4977809;28;20035;-81
2022/12/11 00:53:42;;;;;;;27.52;10.25;;;;;;;;;;4977100;28;20057;-80
2022/12/11 00:56:13;;;;;;;15.45;5.93;;;;;;;;;;4977138;28;20050;-80
2022/12/11 00:58:38;;;;;;;22.25;10.55;;;;;;;;;;4976594;28;20023;-81
2022/12/11 01:01:09;;;;;;;12.40;6.03;;;;;;;;;;4977288;28;20023;-82
2022/12/11 01:03:34;;;;;;;19.25;9.98;;;;;;;;;;4977657;28;20385;-79
2022/12/11 01:06:00;;;;;;;16.38;7.93;;;;;;;;;;4977257;28;20095;-81
2022/12/11 01:08:25;;;;;;;22.27;9.68;;;;;;;;;;4978444;28;20165;-82
2022/12/11 01:10:50;;;;;;;17.33;8.90;;;;;;;;;;4976606;28;20045;-82
2022/12/11 01:13:16;;;;;;;20.30;9.73;;;;;;;;;;4978306;28;20034;-81
2022/12/11 01:15:43;;;;;;;17.33;7.60;;;;;;;;;;4978227;28;20058;-80
2022/12/11 01:18:11;;;;;;;20.35;10.07;;;;;;;;;;4975064;28;20046;-80
2022/12/11 01:20:38;;;;;;;20.70;9.52;;;;;;;;;;4976734;28;20046;-80
2022/12/11 01:23:04;;;;;;;21.02;9.25;;;;;;;;;;4975622;28;20499;-83
2022/12/11 01:25:30;;;;;;;21.63;9.73;;;;;;;;;;4975535;28;20078;-80
2022/12/11 01:27:55;;;;;;;22.38;9.95;;;;;;;;;;4977078;28;20049;-80
2022/12/11 01:30:22;;;;;;;22.60;9.60;;;;;;;;;;4976421;28;20026;-80
2022/12/11 01:32:48;;;;;;;24.55;10.30;;;;;;;;;;4976158;28;20031;-82
2022/12/11 01:35:14;;;;;;;26.15;10.32;;;;;;;;;;4977397;28;20031;-82
2022/12/11 01:37:39;;;;;;;19.67;9.82;;;;;;;;;;4976655;28;20030;-82
2022/12/11 01:40:06;;;;;;;20.02;8.57;;;;;;;;;;4975626;28;20051;-81
2022/12/11 01:42:32;;;;;;;17.90;8.73;;;;;;;;;;4976216;28;20416;-82
2022/12/11 01:45:23;;;;;;;21.48;9.45;;;;;;;;;;4977319;28;20034;-81
2022/12/11 01:47:53;;;;;;;12.27;6.53;;;;;;;;;;4976972;28;20081;-81
2022/12/11 01:50:18;;;;;;;17.67;7.78;;;;;;;;;;4975170;28;20041;-81
2022/12/11 01:52:47;;;;;;;22.60;9.40;;;;;;;;;;4976196;28;20027;-80
2022/12/11 01:55:13;;;;;;;21.17;9.80;;;;;;;;;;4975590;28;20403;-81
2022/12/11 01:57:41;;;;;;;26.38;9.65;;;;;;;;;;4976341;28;20027;-81
2022/12/11 02:00:08;;;;;;;19.15;7.63;;;;;;;;;;4975208;28;20491;-80
2022/12/11 02:02:33;;;;;;;19.10;9.73;;;;;;;;;;4975104;28;20396;-81
2022/12/11 02:05:00;;;;;;;22.30;9.32;;;;;;;;;;4977522;28;20018;-82
2022/12/11 02:07:27;;;;;;;15.73;5.68;;;;;;;;;;4980784;28;20117;-82
2022/12/11 02:09:53;;;;;;;22.70;9.50;;;;;;;;;;4980165;28;20476;-82
2022/12/11 02:12:44;;;;;;;21.38;8.93;;;;;;;;;;4979457;28;20027;-80
2022/12/11 02:15:34;;;;;;;21.83;9.35;;;;;;;;;;4970525;28;20039;-80
2022/12/11 02:18:18;;;;;;;16.75;7.78;;;;;;;;;;4978612;28;20031;-81
2022/12/11 02:21:07;;;;;;;22.40;8.82;;;;;;;;;;4979263;28;20038;-82
2022/12/11 02:23:57;;;;;;;20.95;9.38;;;;;;;;;;4980048;28;20063;-81
2022/12/11 02:26:41;;;;;;;16.98;8.63;;;;;;;;;;4980897;28;20026;-81
2022/12/11 02:29:23;;;;;;;14.15;7.38;;;;;;;;;;4979015;28;20041;-81
2022/12/11 02:32:01;;;;;;;21.80;8.52;;;;;;;;;;4979372;28;20031;-80
2022/12/11 02:34:34;;;;;;;16.05;7.60;;;;;;;;;;4979680;28;20027;-81
2022/12/11 02:37:08;;;;;;;19.10;8.32;;;;;;;;;;4979673;28;20034;-80
2022/12/11 02:39:37;;;;;;;19.67;8.45;;;;;;;;;;4977978;28;20022;-82
2022/12/11 02:42:03;;;;;;;18.33;8.10;;;;;;;;;;4980016;28;20063;-80
2022/12/11 02:44:32;;;;;;;18.30;8.63;;;;;;;;;;4979249;28;20490;-81
2022/12/11 02:46:59;;;;;;;12.80;6.20;;;;;;;;;;4979512;28;20043;-82
2022/12/11 02:49:25;;;;;;;15.82;7.28;;;;;;;;;;4979205;28;20050;-81
2022/12/11 02:51:52;;;;;;;17.77;7.80;;;;;;;;;;4978088;28;20042;-79
2022/12/11 02:54:22;;;;;;;14.20;6.80;;;;;;;;;;4976978;28;20036;-81
2022/12/11 02:56:53;;;;;;;17.77;7.88;;;;;;;;;;4978458;28;20484;-83
2022/12/11 02:59:29;;;;;;;15.68;7.57;;;;;;;;;;4977890;28;20031;-81
2022/12/11 03:01:55;;;;;;;15.60;6.90;;;;;;;;;;4977739;28;20081;-80
2022/12/11 03:04:23;;;;;;;14.07;6.15;;;;;;;;;;4979547;28;20026;-79
2022/12/11 03:06:52;;;;;;;13.27;6.43;;;;;;;;;;4977583;28;20022;-82
2022/12/11 03:09:17;;;;;;;14.00;7.20;;;;;;;;;;4978515;28;20034;-81
2022/12/11 03:11:42;;;;;;;17.50;7.90;;;;;;;;;;4980316;28;20436;-82
2022/12/11 03:14:08;;;;;;;15.20;7.50;;;;;;;;;;4977664;28;20034;-82
2022/12/11 03:17:13;;;;;;;16.02;7.60;;;;;;;;;;4978734;28;20370;-81
2022/12/11 03:20:12;;;;;;;15.50;6.38;;;;;;;;;;4978218;28;20031;-82
2022/12/11 03:22:44;;;;;;;13.52;6.97;;;;;;;;;;4977698;28;20077;-80
2022/12/11 03:25:16;;;;;;;12.70;6.05;;;;;;;;;;4978772;28;20034;-81
2022/12/11 03:28:02;;;;;;;14.85;6.20;;;;;;;;;;4980288;28;20029;-82
2022/12/11 03:30:29;;;;;;;21.60;8.30;;;;;;;;;;4976877;28;20047;-80
2022/12/11 03:33:02;;;;;;;16.95;6.80;;;;;;;;;;4978770;28;20030;-80
2022/12/11 03:35:33;;;;;;;12.27;6.22;;;;;;;;;;4978349;28;20023;-80
2022/12/11 03:38:07;;;;;;;17.65;7.97;;;;;;;;;;4979500;28;20037;-81
2022/12/11 03:40:34;;;;;;;;;;;;;;;;;;4977721;28;20086;-80
2022/12/11 03:42:59;;;;;;;12.82;5.82;;;;;;;;;;4979048;28;19980;-80
2022/12/11 03:45:28;;;;;;;11.48;5.85;;;;;;;;;;4978007;28;20480;-81
2022/12/11 03:47:56;;;;;;;17.33;7.47;;;;;;;;;;4979411;28;20585;-81
2022/12/11 03:50:24;;;;;;;13.20;7.20;;;;;;;;;;4977874;28;20050;-80
2022/12/11 03:52:51;;;;;;;21.52;8.45;;;;;;;;;;4977004;28;20049;-81
2022/12/11 03:55:18;;;;;;;15.75;7.30;;;;;;;;;;4977034;28;20026;-80
2022/12/11 03:57:43;;;;;;;14.88;6.82;;;;;;;;;;4978994;28;20069;-79
2022/12/11 04:00:15;;;;;;;18.23;8.23;;;;;;;;;;4977761;28;20027;-80
2022/12/11 04:02:41;;;;;;;15.77;7.70;;;;;;;;;;4977363;28;20018;-80
2022/12/11 04:05:07;;;;;;;16.48;6.93;;;;;;;;;;4978141;28;20026;-80
2022/12/11 04:07:33;;;;;;;17.70;7.75;;;;;;;;;;4978030;28;20035;-82
2022/12/11 04:09:59;;;;;;;15.20;7.65;;;;;;;;;;4978309;28;20400;-81
2022/12/11 04:12:24;;;;;;;17.08;7.97;;;;;;;;;;4979404;28;20492;-79
2022/12/11 04:15:01;;;;;;;13.77;6.97;;;;;;;;;;4977130;28;20480;-80
2022/12/11 04:25:47;;;;;;;9.95;5.35;;;;;;;;;;4978728;28;20069;-80
2022/12/11 04:28:12;;;;;;;11.77;6.25;;;;;;;;;;4977321;28;20023;-82
2022/12/11 04:30:38;;;;;;;16.88;7.20;;;;;;;;;;4975660;28;20054;-80
2022/12/11 04:33:03;;;;;;;16.95;7.35;;;;;;;;;;4976600;28;20030;-82
2022/12/11 04:35:28;;;;;;;15.90;7.32;;;;;;;;;;4978647;28;20403;-81
2022/12/11 04:37:54;;;;;;;17.67;7.60;;;;;;;;;;4978282;28;20022;-82
2022/12/11 04:40:19;;;;;;;15.05;7.05;;;;;;;;;;4976194;28;20110;-82
2022/12/11 04:42:44;;;;;;;16.65;7.85;;;;;;;;;;4978307;28;20049;-81
2022/12/11 04:45:11;;;;;;;17.63;7.85;;;;;;;;;;4977040;28;20102;-81
2022/12/11 04:47:38;;;;;;;18.45;7.93;;;;;;;;;;4977674;28;20039;-81
2022/12/11 04:50:06;;;;;;;22.10;8.82;;;;;;;;;;4976664;28;20029;-80
2022/12/11 04:52:31;;;;;;;10.40;5.47;;;;;;;;;;4977612;28;20038;-80
2022/12/11 04:54:56;;;;;;;16.08;7.80;;;;;;;;;;4977023;28;20027;-81
2022/12/11 04:57:22;;;;;;;16.70;7.35;;;;;;;;;;4978174;28;20029;-82
2022/12/11 04:59:47;;;;;;;15.82;7.30;;;;;;;;;;4978946;28;20035;-82
2022/12/11 05:02:13;;;;;;;14.48;6.82;;;;;;;;;;4977771;28;20037;-80
2022/12/11 05:04:38;;;;;;;12.95;6.55;;;;;;;;;;4977391;28;20089;-83
2022/12/11 05:07:03;;;;;;;12.90;6.53;;;;;;;;;;4976198;28;20117;-82
2022/12/11 05:09:29;;;;;;;16.02;6.97;;;;;;;;;;4977252;28;20033;-83
2022/12/11 05:11:54;;;;;;;11.65;6.05;;;;;;;;;;4976610;28;20472;-81
2022/12/11 05:14:20;;;;;;;12.27;5.90;;;;;;;;;;4977358;28;20050;-81
2022/12/11 05:16:45;;;;;;;12.88;6.10;;;;;;;;;;4976976;28;20109;-82
2022/12/11 05:19:10;;;;;;;15.25;6.45;;;;;;;;;;4975480;28;20480;-81
2022/12/11 05:21:36;;;;;;;11.50;5.40;;;;;;;;;;4976916;28;20117;-81
2022/12/11 05:24:02;;;;;;;15.55;5.90;;;;;;;;;;4976482;28;20029;-81
2022/12/11 05:26:27;;;;;;;12.30;5.90;;;;;;;;;;4976495;28;20488;-81
2022/12/11 05:28:53;;;;;;;10.10;5.25;;;;;;;;;;4978750;28;20085;-81
2022/12/11 05:31:21;;;;;;;12.82;5.38;;;;;;;;;;4977258;28;20477;-80
2022/12/11 05:33:49;;;;;;;16.75;5.90;;;;;;;;;;4977713;28;20476;-80
2022/12/11 05:36:23;;;;;;;16.13;5.53;;;;;;;;;;4978000;28;20054;-81
2022/12/11 05:38:49;;;;;;;9.90;5.05;;;;;;;;;;4976682;28;20027;-80
2022/12/11 05:41:18;;;;;;;16.50;6.88;;;;;;;;;;4976994;28;20022;-82
2022/12/11 05:43:44;;;;;;;12.57;6.15;;;;;;;;;;4976090;28;20035;-81
2022/12/11 05:46:15;;;;;;;13.57;6.15;;;;;;;;;;4977340;28;20038;-81
2022/12/11 05:48:42;;;;;;;14.23;6.75;;;;;;;;;;4977262;28;20043;-82
2022/12/11 05:51:08;;;;;;;17.55;7.28;;;;;;;;;;4977213;28;20101;-83
2022/12/11 05:53:35;;;;;;;13.43;5.25;;;;;;;;;;4977224;28;20392;-82
2022/12/11 05:56:03;;;;;;;17.88;7.38;;;;;;;;;;4977458;28;20037;-81
2022/12/11 05:58:28;;;;;;;16.00;7.38;;;;;;;;;;4977170;28;20484;-82
2022/12/11 06:00:53;;;;;;;18.38;7.82;;;;;;;;;;4977169;28;20019;-81
2022/12/11 06:03:18;;;;;;;9.98;4.40;;;;;;;;;;4976286;28;20023;-83
2022/12/11 06:05:44;;;;;;;10.63;5.65;;;;;;;;;;4977896;28;20027;-81
2022/12/11 06:08:09;;;;;;;14.75;5.18;;;;;;;;;;4975382;28;20377;-81
2022/12/11 06:10:34;;;;;;;10.70;5.13;;;;;;;;;;4977230;28;20030;-80
2022/12/11 06:13:00;;;;;;;12.32;6.05;;;;;;;;;;4977177;28;20030;-80
2022/12/11 06:15:25;;;;;;;15.07;5.68;;;;;;;;;;4976220;28;20023;-82
2022/12/11 06:17:51;;;;;;;10.95;4.50;;;;;;;;;;4977112;28;20035;-80
2022/12/11 06:20:16;;;;;;;8.85;4.20;;;;;;;;;;4977129;28;20031;-81
2022/12/11 06:22:41;;;;;;;10.25;5.75;;;;;;;;;;4975293;28;20105;-81
2022/12/11 06:25:07;;;;;;;12.05;5.78;;;;;;;;;;4977522;28;20050;-81
2022/12/11 06:27:32;;;;;;;11.48;5.72;;;;;;;;;;4976951;28;20094;-81
2022/12/11 06:29:57;;;;;;;9.75;5.30;;;;;;;;;;4975527;28;20368;-82
2022/12/11 06:32:23;;;;;;;11.43;5.32;;;;;;;;;;4975438;28;20030;-81
2022/12/11 06:34:48;;;;;;;10.63;5.65;;;;;;;;;;4975393;28;20023;-82
2022/12/11 06:37:13;;;;;;;7.40;3.85;;;;;;;;;;4975067;28;20079;-81
2022/12/11 06:39:38;;;;;;;13.35;5.80;;;;;;;;;;4977161;28;20050;-81
2022/12/11 06:42:04;;;;;;;10.75;4.85;;;;;;;;;;4975716;28;20027;-82
2022/12/11 06:44:29;;;;;;;10.40;5.00;;;;;;;;;;4975480;28;20511;-82
2022/12/11 06:46:55;;;;;;;7.72;4.35;;;;;;;;;;4976389;28;20101;-80
2022/12/11 06:49:20;;;;;;;10.07;5.30;;;;;;;;;;4975177;28;20019;-80
2022/12/11 06:51:45;;;;;;;13.13;6.18;;;;;;;;;;4978557;28;20439;-81
2022/12/11 06:54:11;;;;;;;11.75;5.40;;;;;;;;;;4979859;28;20035;-81
2022/12/11 06:56:36;;;;;;;8.15;4.78;;;;;;;;;;4980188;28;20023;-81
2022/12/11 06:59:01;;;;;;;12.90;5.85;;;;;;;;;;4980172;28;20023;-81
2022/12/11 07:01:27;;;;;;;5.80;3.75;;;;;;;;;;4979658;28;20109;-81
2022/12/11 07:03:57;;;;;;;13.18;6.10;;;;;;;;;;4978334;28;20026;-80
2022/12/11 07:06:24;;;;;;;15.15;6.05;;;;;;;;;;4979777;28;20500;-81
2022/12/11 07:08:49;;;;;;;12.45;5.80;;;;;;;;;;4980905;28;20070;-80
2022/12/11 07:11:16;;;;;;;6.75;4.00;;;;;;;;;;4980146;28;20162;-82
2022/12/11 07:13:42;;;;;;;10.77;5.47;;;;;;;;;;4979869;28;20027;-79
2022/12/11 07:16:12;;;;;;;11.98;5.45;;;;;;;;;;4979368;28;20041;-81
2022/12/11 07:18:38;;;;;;;9.23;5.05;;;;;;;;;;4979847;28;20480;-80
2022/12/11 07:21:05;;;;;;;14.35;5.88;;;;;;;;;;4977879;28;20054;-80
2022/12/11 07:23:31;;;;;;;14.18;5.60;;;;;;;;;;4978391;28;20051;-80
2022/12/11 07:25:56;;;;;;;8.18;4.18;;;;;;;;;;4980232;28;20503;-81
2022/12/11 07:28:22;;;;;;;13.48;6.47;;;;;;;;;;4979737;28;20034;-80
2022/12/11 07:30:47;;;;;;;10.65;5.10;;;;;;;;;;4978115;28;20109;-81
2022/12/11 07:33:13;;;;;;;13.00;5.30;;;;;;;;;;4979329;28;20035;-80
2022/12/11 07:35:38;;;;;;;14.32;5.60;;;;;;;;;;4978854;28;20027;-80
2022/12/11 07:38:03;;;;;;;8.73;4.72;;;;;;;;;;4979814;28;20031;-80
2022/12/11 07:40:28;;;;;;;9.82;4.50;;;;;;;;;;4979528;28;20031;-82
2022/12/11 07:42:54;;;;;;;10.23;5.32;;;;;;;;;;4978340;28;20539;-80
2022/12/11 07:45:19;;;;;;;10.50;4.88;;;;;;;;;;4979216;28;20105;-82
2022/12/11 07:47:44;;;;;;;8.75;4.72;;;;;;;;;;4979592;28;20027;-81
2022/12/11 07:50:09;;;;;;;11.10;5.70;;;;;;;;;;4978255;28;20030;-81
2022/12/11 07:52:35;;;;;;;12.07;5.88;;;;;;;;;;4977726;28;20502;-81
2022/12/11 07:55:00;;;;;;;13.10;5.88;;;;;;;;;;4979696;28;20034;-81
2022/12/11 07:57:26;;;;;;;11.93;5.22;;;;;;;;;;4978256;28;20022;-80
2022/12/11 07:59:51;;;;;;;11.95;5.85;;;;;;;;;;4978812;28;20049;-80
2022/12/11 08:02:17;;;;;;;12.35;5.45;;;;;;;;;;4976923;28;20468;-80
2022/12/11 08:04:42;;;;;;;10.85;4.40;;;;;;;;;;4979086;28;20054;-80
2022/12/11 08:07:07;;;;;;;11.05;5.47;;;;;;;;;;4979287;28;20030;-81
2022/12/11 08:09:33;;;;;;;11.30;5.53;;;;;;;;;;4979609;28;20022;-81
2022/12/11 08:12:04;;;;;;;11.18;6.05;;;;;;;;;;4977713;28;20026;-81
2022/12/11 08:14:29;;;;;;;12.32;5.95;;;;;;;;;;4978963;28;20377;-81
2022/12/11 08:16:56;;;;;;;10.40;5.15;;;;;;;;;;4979446;28;20034;-81
2022/12/11 08:19:21;;;;;;;12.98;5.88;;;;;;;;;;4978761;28;20026;-80
2022/12/11 08:21:46;;;;;;;12.38;5.68;;;;;;;;;;4978369;28;20110;-81
2022/12/11 08:24:15;;;;;;;13.55;5.43;;;;;;;;;;4978072;28;20135;-79
2022/12/11 08:26:40;;;;;;;10.10;4.88;;;;;;;;;;4978879;28;20023;-82
2022/12/11 08:29:05;;;;;;;12.02;5.32;;;;;;;;;;4977038;28;20624;-80
2022/12/11 08:31:31;;;;;;;12.77;5.93;;;;;;;;;;4978857;28;20133;-80
2022/12/11 08:33:57;;;;;;;13.30;5.45;;;;;;;;;;4976996;28;20627;-80
2022/12/11 08:36:31;;;;;;;12.10;4.95;;;;;;;;;;4977250;28;20058;-80
2022/12/11 08:39:00;;;;;;;12.77;5.97;;;;;;;;;;4978442;28;20030;-81
2022/12/11 08:41:27;;;;;;;10.05;4.75;;;;;;;;;;4977940;28;20038;-81
2022/12/11 08:43:54;;;;;;;14.45;5.93;;;;;;;;;;4977796;28;20054;-81
2022/12/11 08:46:22;;;;;;;11.02;5.53;;;;;;;;;;4977701;28;20027;-80
2022/12/11 08:48:47;;;;;;;12.10;6.13;;;;;;;;;;4976846;28;20067;-82
2022/12/11 08:51:16;;;;;;;10.85;4.72;;;;;;;;;;4979019;28;20378;-80
2022/12/11 08:53:42;;;;;;;14.20;6.03;;;;;;;;;;4978679;28;20027;-81
2022/12/11 08:56:10;;;;;;;6.35;3.03;;;;;;;;;;4978848;28;20030;-80
2022/12/11 08:58:36;;;;;;;8.65;3.80;;;;;;;;;;4979431;28;20030;-80
2022/12/11 09:01:09;;;;;;;12.30;6.07;;;;;;;;;;4977212;28;20038;-81
2022/12/11 09:03:36;;;;;;;7.55;3.70;;;;;;;;;;4978829;28;20014;-81
2022/12/11 09:06:10;;;;;;;14.90;5.63;;;;;;;;;;4977446;28;20035;-82
2022/12/11 09:08:36;;;;;;;8.68;4.47;;;;;;;;;;4977509;28;20019;-81
2022/12/11 09:11:07;;;;;;;9.57;4.95;;;;;;;;;;4979089;28;20022;-80
2022/12/11 09:13:33;;;;;;;9.43;5.25;;;;;;;;;;4978210;28;20082;-82
2022/12/11 09:15:59;;;;;;;8.80;3.80;;;;;;;;;;4978318;28;20026;-81
2022/12/11 09:18:25;;;;;;;10.13;4.03;;;;;;;;;;4978606;28;20030;-79
2022/12/11 09:21:01;;;;;;;15.50;5.72;;;;;;;;;;4976976;28;20030;-81
2022/12/11 09:23:26;;;;;;;12.50;5.28;;;;;;;;;;4978749;28;20030;-81
2022/12/11 09:25:52;;;;;;;9.65;4.50;;;;;;;;;;4978711;28;20035;-82
2022/12/11 09:28:17;;;;;;;10.43;5.22;;;;;;;;;;4979091;28;20026;-82
2022/12/11 09:30:42;;;;;;;10.77;5.15;;;;;;;;;;4978536;28;20022;-82
2022/12/11 09:33:08;;;;;;;11.05;5.65;;;;;;;;;;4980122;28;20047;-81
2022/12/11 09:35:33;;;;;;;10.75;4.43;;;;;;;;;;4981008;28;20473;-79
2022/12/11 09:37:58;;;;;;;4.13;2.13;;;;;;;;;;4979751;28;20042;-80
2022/12/11 09:40:23;;;;;;;10.90;5.30;;;;;;;;;;4979141;28;20022;-79
2022/12/11 09:42:58;;;;;;;10.18;5.10;;;;;;;;;;4981118;28;20102;-81
2022/12/11 09:45:23;;;;;;;11.68;5.32;;;;;;;;;;4981026;28;20030;-82
2022/12/11 09:47:53;;;;;;;9.35;4.72;;;;;;;;;;4979559;28;20495;-82
2022/12/11 09:50:23;;;;;;;9.82;5.20;;;;;;;;;;4981049;28;20031;-81
2022/12/11 09:53:11;;;;;;;11.07;5.70;;;;;;;;;;4979770;28;20063;-81
2022/12/11 09:56:05;;;;;;;10.95;5.60;;;;;;;;;;4978458;28;20052;-80
2022/12/11 09:59:03;;;;;;;10.35;4.63;;;;;;;;;;4980406;28;20030;-83
2022/12/11 10:01:35;;;;;;;10.30;4.95;;;;;;;;;;4926280;28;20121;-81
2022/12/11 10:04:15;;;;;;;9.57;5.18;;;;;;;;;;4979369;28;20038;-81
2022/12/11 10:07:20;;;;;;;8.57;4.25;;;;;;;;;;4980693;28;20033;-81
2022/12/11 10:09:59;;;;;;;9.70;4.57;;;;;;;;;;4969133;28;20039;-81
2022/12/11 10:12:40;;;;;;;9.65;4.80;;;;;;;;;;4978733;28;20030;-82
2022/12/11 10:15:05;;;;;;;11.13;5.88;;;;;;;;;;4979312;28;20022;-81
2022/12/11 10:17:35;;;;;;;7.20;3.20;;;;;;;;;;4980389;28;20038;-81
2022/12/11 10:20:19;;;;;;;10.95;4.85;;;;;;;;;;4980335;28;20023;-81
2022/12/11 10:22:45;;;;;;;;;;;;;;;;;;4978920;28;20051;-82
2022/12/11 10:25:42;;;;;;;13.30;5.00;;;;;;;;;;4979178;28;19910;-82
2022/12/11 10:28:13;;;;;;;13.70;5.75;;;;;;;;;;4905392;29;20087;-81
2022/12/11 10:30:43;;;;;;;14.80;5.88;;;;;;;;;;4983066;28;20065;-82
2022/12/11 10:33:21;;;;;;;10.63;5.55;;;;;;;;;;4983802;28;20444;-81
2022/12/11 10:35:58;;;;;;;12.57;5.50;;;;;;;;;;4983021;28;20026;-81
2022/12/11 10:38:33;;;;;;;9.98;5.22;;;;;;;;;;4982483;28;20026;-80
2022/12/11 10:41:09;;;;;;;10.80;5.68;;;;;;;;;;4981688;28;20050;-81
2022/12/11 10:43:42;;;;;;;13.07;6.10;;;;;;;;;;4984168;28;20062;-82
2022/12/11 10:46:16;;;;;;;12.27;6.30;;;;;;;;;;4982869;28;20034;-81
2022/12/11 10:49:00;;;;;;;11.43;5.35;;;;;;;;;;4984023;28;20444;-82
2022/12/11 10:51:31;;;;;;;9.93;5.03;;;;;;;;;;4984311;28;20023;-81
2022/12/11 10:54:05;;;;;;;10.18;5.57;;;;;;;;;;4984455;28;20031;-82
2022/12/11 10:56:32;;;;;;;13.60;5.93;;;;;;;;;;4982206;28;20118;-81
2022/12/11 10:58:59;;;;;;;10.38;5.03;;;;;;;;;;4983019;28;20035;-79
2022/12/11 11:01:30;;;;;;;11.68;4.78;;;;;;;;;;4981616;28;20026;-82
2022/12/11 11:04:03;;;;;;;11.80;5.07;;;;;;;;;;4982996;28;20023;-81
2022/12/11 11:06:28;;;;;;;10.27;4.22;;;;;;;;;;4982216;28;20033;-81
2022/12/11 11:08:57;;;;;;;9.35;5.07;;;;;;;;;;4981646;28;20030;-81
2022/12/11 11:11:26;;;;;;;9.43;4.57;;;;;;;;;;4982610;28;20027;-82
2022/12/11 11:14:03;;;;;;;9.93;4.32;;;;;;;;;;4982620;28;20396;-80
2022/12/11 11:16:29;;;;;;;9.25;4.78;;;;;;;;;;4981945;28;20027;-81
2022/12/11 11:18:56;;;;;;;9.55;4.63;;;;;;;;;;4983093;28;20030;-82
2022/12/11 11:21:24;;;;;;;10.13;4.85;;;;;;;;;;4980947;28;20051;-81
2022/12/11 11:23:51;;;;;;;9.70;5.10;;;;;;;;;;4981776;28;20027;-81
2022/12/11 11:26:18;;;;;;;11.57;4.45;;;;;;;;;;4982879;28;20056;-82
2022/12/11 11:28:49;;;;;;;6.07;3.33;;;;;;;;;;4984528;28;20031;-81
2022/12/11 11:31:17;;;;;;;9.80;5.10;;;;;;;;;;4983568;28;20030;-83
2022/12/11 11:33:51;;;;;;;8.90;4.25;;;;;;;;;;4983411;28;20440;-81
2022/12/11 11:36:21;;;;;;;7.22;3.55;;;;;;;;;;4982067;28;20061;-80
2022/12/11 11:39:04;;;;;;;8.27;4.43;;;;;;;;;;4982445;28;20030;-81
2022/12/11 11:41:57;;;;;;;9.40;4.40;;;;;;;;;;4981884;28;20035;-81
2022/12/11 11:44:30;;;;;;;7.45;3.58;;;;;;;;;;4983688;28;20022;-82
2022/12/11 11:47:24;;;;;;;10.53;4.97;;;;;;;;;;4983509;28;20034;-82
2022/12/11 11:50:02;;;;;;;11.32;5.28;;;;;;;;;;4979765;28;20275;-81
2022/12/11 11:52:50;;;;;;;10.45;5.35;;;;;;;;;;4980566;28;20027;-82
2022/12/11 11:55:34;;;;;;;8.43;4.47;;;;;;;;;;4981866;28;20054;-82
2022/12/11 11:58:26;;;;;;;10.82;5.43;;;;;;;;;;4981047;28;20015;-80
2022/12/11 12:00:54;;;;;;;9.77;4.97;;;;;;;;;;4980864;28;20097;-81
2022/12/11 12:03:22;;;;;;;12.85;5.43;;;;;;;;;;4981406;28;20030;-83
2022/12/11 12:06:06;;;;;;;13.35;5.93;;;;;;;;;;4982297;28;20400;-81
2022/12/11 12:09:12;;;;;;;10.60;5.03;;;;;;;;;;4981447;28;20023;-82
2022/12/11 12:12:06;;;;;;;11.30;5.22;;;;;;;;;;4928439;28;20034;-80
2022/12/11 12:14:48;;;;;;;10.93;5.30;;;;;;;;;;4981954;28;20098;-83
2022/12/11 12:17:25;;;;;;;11.68;6.40;;;;;;;;;;4982035;28;20058;-81
2022/12/11 12:20:12;;;;;;;9.23;4.88;;;;;;;;;;4981565;28;20026;-82
2022/12/11 12:23:05;;;;;;;11.63;5.63;;;;;;;;;;4981236;28;20027;-82
2022/12/11 12:25:42;;;;;;;14.75;6.47;;;;;;;;;;4980635;28;20033;-83
2022/12/11 12:28:41;;;;;;;11.85;5.75;;;;;;;;;;4979924;28;20057;-81
2022/12/11 12:31:12;;;;;;;11.20;5.38;;;;;;;;;;4979536;28;20084;-81
2022/12/11 12:33:52;;;;;;;10.70;5.32;;;;;;;;;;4979265;28;20027;-81
2022/12/11 12:36:30;;;;;;;10.93;5.80;;;;;;;;;;4977985;28;20067;-81
2022/12/11 12:38:59;;;;;;;7.80;4.72;;;;;;;;;;4978534;28;20018;-81
2022/12/11 12:41:40;;;;;;;8.10;3.78;;;;;;;;;;4978614;28;20053;-81
2022/12/11 12:44:17;;;;;;;10.18;4.85;;;;;;;;;;4979637;28;20027;-80
2022/12/11 12:46:51;;;;;;;7.13;3.80;;;;;;;;;;4978748;28;20027;-81
2022/12/11 12:49:47;;;;;;;10.23;4.97;;;;;;;;;;4979568;28;20476;-81
2022/12/11 12:52:17;;;;;;;11.57;5.78;;;;;;;;;;4977118;28;20038;-81
2022/12/11 12:55:12;;;;;;;10.38;5.40;;;;;;;;;;4977473;28;20026;-81
2022/12/11 12:57:32;;;;;;;12.57;6.28;;;;;;;;;;4978657;28;20031;-83
2022/12/11 12:59:58;;;;;;;10.50;5.40;;;;;;;;;;4977513;28;20117;-82
2022/12/11 13:02:23;;;;;;;12.07;5.90;;;;;;;;;;4976968;28;20022;-79
2022/12/11 13:04:59;;;;;;;9.13;4.65;;;;;;;;;;4977034;28;20026;-81
2022/12/11 13:07:28;;;;;;;9.57;4.95;;;;;;;;;;4977762;28;20488;-82
2022/12/11 13:10:00;;;;;;;10.65;5.35;;;;;;;;;;4979935;28;20033;-81
2022/12/11 13:12:32;;;;;;;6.78;3.47;;;;;;;;;;4978913;28;20034;-83
2022/12/11 13:14:58;;;;;;;8.15;4.10;;;;;;;;;;4978523;28;20034;-81
2022/12/11 13:17:34;;;;;;;8.73;5.13;;;;;;;;;;4978514;28;20030;-81
2022/12/11 13:20:18;;;;;;;11.48;4.93;;;;;;;;;;4978827;28;20042;-81
2022/12/11 13:22:48;;;;;;;10.60;4.80;;;;;;;;;;4978145;28;20018;-80
2022/12/11 13:25:27;;;;;;;12.27;5.15;;;;;;;;;;4978648;28;20041;-81
2022/12/11 13:28:04;;;;;;;10.00;5.53;;;;;;;;;;4977191;28;20151;-81
2022/12/11 13:30:29;;;;;;;11.85;5.15;;;;;;;;;;4977386;28;20385;-82
2022/12/11 13:33:12;;;;;;;9.88;5.18;;;;;;;;;;4977781;28;20035;-82
2022/12/11 13:35:38;;;;;;;6.47;3.55;;;;;;;;;;4978697;28;20029;-81
2022/12/11 13:38:06;;;;;;;13.05;5.43;;;;;;;;;;4978760;28;20026;-82
2022/12/11 13:40:38;;;;;;;10.23;5.10;;;;;;;;;;4976673;28;20058;-82
2022/12/11 13:43:25;;;;;;;11.18;4.93;;;;;;;;;;4977107;28;20484;-82
2022/12/11 13:45:55;;;;;;;10.40;5.75;;;;;;;;;;4979352;28;20392;-81
2022/12/11 13:48:25;;;;;;;10.52;5.47;;;;;;;;;;4978508;28;20031;-82
2022/12/11 13:50:53;;;;;;;13.55;6.00;;;;;;;;;;4977604;28;20022;-82
2022/12/11 13:53:20;;;;;;;10.55;4.90;;;;;;;;;;4978845;28;20066;-81
2022/12/11 13:56:05;;;;;;;10.05;4.50;;;;;;;;;;4978506;28;20025;-82
2022/12/11 13:58:36;;;;;;;10.90;5.50;;;;;;;;;;4978437;28;20473;-81
2022/12/11 14:01:07;;;;;;;11.32;5.93;;;;;;;;;;4977347;28;20077;-82
2022/12/11 14:03:33;;;;;;;8.00;4.38;;;;;;;;;;4979985;28;20053;-81
2022/12/11 14:06:00;;;;;;;10.40;5.15;;;;;;;;;;4979599;28;20376;-82
2022/12/11 14:08:34;;;;;;;8.05;4.55;;;;;;;;;;4976978;28;20023;-82
2022/12/11 14:11:00;;;;;;;8.77;4.57;;;;;;;;;;4978422;28;20046;-82
2022/12/11 14:13:35;;;;;;;5.63;2.85;;;;;;;;;;4978306;28;20019;-82
2022/12/11 14:16:01;;;;;;;7.63;4.25;;;;;;;;;;4978875;28;20035;-81
2022/12/11 14:18:30;;;;;;;7.63;3.97;;;;;;;;;;4987673;28;20034;-81
2022/12/11 14:20:57;;;;;;;9.10;4.80;;;;;;;;;;4994252;28;20058;-82
2022/12/11 14:23:28;;;;;;;12.77;6.03;;;;;;;;;;4991836;28;20022;-82
2022/12/11 14:26:24;;;;;;;13.35;6.55;;;;;;;;;;4987455;28;20507;-81
2022/12/11 14:28:49;;;;;;;10.43;5.65;;;;;;;;;;4975678;28;20034;-81
2022/12/11 14:31:23;;;;;;;13.27;5.15;;;;;;;;;;4976351;28;20031;-82
2022/12/11 14:33:53;;;;;;;9.63;5.57;;;;;;;;;;4977845;28;20023;-82
2022/12/11 14:36:19;;;;;;;8.57;5.30;;;;;;;;;;4977029;28;20026;-82
2022/12/11 14:38:57;;;;;;;12.05;6.10;;;;;;;;;;4977390;28;20508;-79
2022/12/11 14:41:32;;;;;;;11.60;6.63;;;;;;;;;;4976294;28;20027;-81
2022/12/11 14:44:04;;;;;;;8.82;4.80;;;;;;;;;;4977400;28;20035;-82
2022/12/11 14:46:37;;;;;;;13.38;6.65;;;;;;;;;;4976101;28;20499;-82
2022/12/11 14:49:14;;;;;;;14.10;6.75;;;;;;;;;;4976692;28;20034;-81
2022/12/11 14:51:40;;;;;;;16.65;6.97;;;;;;;;;;4977770;28;20399;-81
2022/12/11 14:54:07;;;;;;;10.27;4.50;;;;;;;;;;4977364;28;20102;-81
2022/12/11 14:56:32;;;;;;;7.65;4.30;;;;;;;;;;4977809;28;20038;-81
2022/12/11 14:59:07;;;;;;;6.85;4.03;;;;;;;;;;4976904;28;20026;-83